Time;durP1;ratioP1;P1;durP2;ratioP2;P2;SDS_P1;SDS_P2;PMS_P1;PMS_P2;Temp;Humidity;BMP_temperature;BMP_pressure;BME280_temperature;BME280_humidity;BME280_pressure;Samples;Min_cycle;Max_cycle;Signal;HPM_P1;HPM_P2
2022/06/18 00:01:50;;;;;;;1.42;1.30;;;;;;;;;;4562889;28;20028;-70
2022/06/18 00:04:00;;;;;;;1.33;1.17;;;;;;;;;;4561705;28;20037;-71
2022/06/18 00:06:11;;;;;;;1.40;1.30;;;;;;;;;;4565429;27;20486;-71
2022/06/18 00:08:24;;;;;;;2.00;1.20;;;;;;;;;;4563022;27;20089;-70
2022/06/18 00:10:34;;;;;;;2.00;1.30;;;;;;;;;;4565184;28;20514;-70
2022/06/18 00:15:16;;;;;;;2.08;1.30;;;;;;;;;;4564716;28;20047;-70
2022/06/18 00:17:27;;;;;;;1.40;1.20;;;;;;;;;;4562961;28;20032;-70
2022/06/18 00:19:37;;;;;;;1.30;1.20;;;;;;;;;;4563391;27;20028;-70
2022/06/18 00:21:48;;;;;;;1.40;1.30;;;;;;;;;;4562457;28;20122;-70
2022/06/18 00:23:58;;;;;;;1.27;1.17;;;;;;;;;;4560536;28;20360;-71
2022/06/18 00:26:09;;;;;;;1.17;1.08;;;;;;;;;;4565824;27;20063;-70
2022/06/18 00:28:26;;;;;;;1.30;1.20;;;;;;;;;;4565543;28;20032;-70
2022/06/18 00:30:38;;;;;;;1.60;1.25;;;;;;;;;;4553367;28;21199;-70
2022/06/18 00:32:48;;;;;;;1.30;1.20;;;;;;;;;;4564422;28;20035;-71
2022/06/18 00:34:59;;;;;;;1.30;1.20;;;;;;;;;;4565582;27;20042;-69
2022/06/18 00:37:15;;;;;;;1.30;1.20;;;;;;;;;;4566139;28;20168;-71
2022/06/18 00:39:28;;;;;;;1.48;1.38;;;;;;;;;;4569554;28;21462;-70
2022/06/18 00:41:41;;;;;;;1.35;1.25;;;;;;;;;;4566783;28;20776;-72
2022/06/18 00:43:58;;;;;;;1.40;1.30;;;;;;;;;;4560168;28;20138;-70
2022/06/18 00:46:08;;;;;;;1.50;1.25;;;;;;;;;;4565922;28;20040;-71
2022/06/18 00:48:25;;;;;;;1.40;1.30;;;;;;;;;;4566778;27;20049;-71
2022/06/18 00:50:48;;;;;;;1.30;1.20;;;;;;;;;;4568257;28;20035;-70
2022/06/18 00:53:08;;;;;;;1.20;1.10;;;;;;;;;;4563976;28;20078;-69
2022/06/18 00:55:30;;;;;;;1.20;1.10;;;;;;;;;;4567518;28;20043;-71
2022/06/18 00:58:03;;;;;;;1.40;1.30;;;;;;;;;;4563998;28;20547;-70
2022/06/18 01:00:48;;;;;;;1.40;1.13;;;;;;;;;;4566026;27;20047;-72
2022/06/18 01:02:58;;;;;;;1.30;1.20;;;;;;;;;;4536682;27;20048;-71
2022/06/18 01:05:24;;;;;;;1.15;1.08;;;;;;;;;;4566000;28;20036;-72
2022/06/18 01:07:36;;;;;;;1.48;1.30;;;;;;;;;;4565373;28;20574;-71
2022/06/18 01:09:49;;;;;;;1.30;1.20;;;;;;;;;;4555149;28;20070;-71
2022/06/18 01:12:00;;;;;;;1.88;1.15;;;;;;;;;;4564675;27;21036;-71
2022/06/18 01:14:15;;;;;;;1.70;1.20;;;;;;;;;;4566265;28;20036;-71
2022/06/18 01:16:26;;;;;;;1.30;1.20;;;;;;;;;;4556454;28;20051;-71
2022/06/18 01:18:38;;;;;;;1.10;1.10;;;;;;;;;;4565165;28;20032;-70
2022/06/18 01:20:53;;;;;;;1.27;1.17;;;;;;;;;;4563743;28;20029;-71
2022/06/18 01:23:03;;;;;;;1.30;1.20;;;;;;;;;;4562544;28;20025;-70
2022/06/18 01:25:14;;;;;;;1.50;1.13;;;;;;;;;;4573391;28;20040;-70
2022/06/18 01:27:28;;;;;;;1.45;1.20;;;;;;;;;;4556842;28;20122;-70
2022/06/18 01:29:39;;;;;;;2.47;1.30;;;;;;;;;;4567424;28;20564;-70
2022/06/18 01:31:50;;;;;;;1.10;1.00;;;;;;;;;;4562684;28;20033;-71
2022/06/18 01:34:01;;;;;;;1.20;1.10;;;;;;;;;;4572372;28;20071;-70
2022/06/18 01:36:14;;;;;;;1.58;1.17;;;;;;;;;;4567144;28;20615;-70
2022/06/18 01:38:25;;;;;;;1.20;1.10;;;;;;;;;;4563517;28;20032;-71
2022/06/18 01:41:49;;;;;;;1.27;1.17;;;;;;;;;;4563158;28;20043;-70
2022/06/18 01:43:34;;;;;;;1.50;1.20;;;;;;;;;;4565522;28;20040;-71
2022/06/18 01:45:47;;;;;;;1.33;1.23;;;;;;;;;;4555803;28;20044;-70
2022/06/18 01:48:06;;;;;;;1.60;1.05;;;;;;;;;;4572683;28;20024;-71
2022/06/18 01:50:21;;;;;;;1.42;1.20;;;;;;;;;;4564679;28;20048;-71
2022/06/18 01:52:36;;;;;;;1.20;1.10;;;;;;;;;;4555909;28;20174;-70
2022/06/18 01:54:54;;;;;;;1.52;1.20;;;;;;;;;;4580788;27;20024;-71
2022/06/18 01:57:10;;;;;;;1.42;1.20;;;;;;;;;;4571245;28;20123;-71
2022/06/18 01:59:29;;;;;;;1.73;1.30;;;;;;;;;;4547207;28;20504;-71
2022/06/18 02:01:44;;;;;;;1.67;1.27;;;;;;;;;;4555512;28;20044;-71
2022/06/18 02:03:59;;;;;;;1.77;1.23;;;;;;;;;;4549405;28;21648;-70
2022/06/18 02:06:10;;;;;;;1.10;1.00;;;;;;;;;;4564319;28;20032;-70
2022/06/18 02:08:21;;;;;;;0.90;0.90;;;;;;;;;;4563625;27;20028;-71
2022/06/18 02:10:37;;;;;;;1.35;1.25;;;;;;;;;;4561825;28;20067;-71
2022/06/18 02:12:48;;;;;;;1.25;1.05;;;;;;;;;;4555603;28;21314;-71
2022/06/18 02:15:09;;;;;;;1.27;1.08;;;;;;;;;;4564995;28;20641;-69
2022/06/18 02:17:21;;;;;;;1.60;1.38;;;;;;;;;;4569576;28;20064;-71
2022/06/18 02:19:34;;;;;;;2.30;1.27;;;;;;;;;;4573152;27;20040;-71
2022/06/18 02:21:53;;;;;;;1.55;1.23;;;;;;;;;;4555641;28;20111;-70
2022/06/18 02:24:03;;;;;;;2.50;1.20;;;;;;;;;;4554563;28;20067;-71
2022/06/18 02:26:14;;;;;;;1.30;1.20;;;;;;;;;;4547440;28;20039;-70
2022/06/18 02:28:28;;;;;;;1.63;1.10;;;;;;;;;;4564403;28;20924;-71
2022/06/18 02:30:39;;;;;;;1.45;1.30;;;;;;;;;;4562537;28;20652;-70
2022/06/18 02:32:59;;;;;;;1.30;1.20;;;;;;;;;;4562263;28;20028;-71
2022/06/18 02:35:14;;;;;;;1.45;1.20;;;;;;;;;;4565154;28;20110;-70
2022/06/18 02:37:27;;;;;;;1.42;1.30;;;;;;;;;;4565805;28;20172;-70
2022/06/18 02:39:50;;;;;;;1.30;1.20;;;;;;;;;;4572082;28;20094;-70
2022/06/18 02:42:12;;;;;;;1.50;1.40;;;;;;;;;;4555195;28;20033;-71
2022/06/18 02:44:23;;;;;;;1.42;1.17;;;;;;;;;;4566010;28;20600;-71
2022/06/18 02:46:33;;;;;;;1.58;1.30;;;;;;;;;;4563667;28;20032;-70
2022/06/18 02:48:44;;;;;;;1.42;1.30;;;;;;;;;;4563479;28;20036;-70
2022/06/18 02:50:57;;;;;;;1.33;1.23;;;;;;;;;;4566597;27;20032;-70
2022/06/18 02:53:11;;;;;;;1.40;1.30;;;;;;;;;;4562019;28;21058;-70
2022/06/18 02:55:46;;;;;;;1.58;1.10;;;;;;;;;;4562178;28;20060;-71
2022/06/18 02:58:02;;;;;;;1.40;1.30;;;;;;;;;;4562849;28;20049;-71
2022/06/18 03:00:13;;;;;;;1.30;1.20;;;;;;;;;;4554213;28;20104;-70
2022/06/18 03:02:24;;;;;;;1.98;1.02;;;;;;;;;;4564856;28;20032;-70
2022/06/18 03:04:34;;;;;;;1.35;1.25;;;;;;;;;;4554538;28;20520;-71
2022/06/18 03:06:45;;;;;;;1.30;1.20;;;;;;;;;;4564654;28;20052;-70
2022/06/18 03:08:57;;;;;;;1.30;1.20;;;;;;;;;;4566387;28;20476;-71
2022/06/18 03:13:39;;;;;;;1.50;1.17;;;;;;;;;;4566955;28;20024;-70
2022/06/18 03:15:53;;;;;;;1.80;1.35;;;;;;;;;;4547077;28;20087;-70
2022/06/18 03:18:04;;;;;;;1.50;1.30;;;;;;;;;;4571478;27;20020;-70
2022/06/18 03:20:17;;;;;;;1.52;1.42;;;;;;;;;;4561673;28;20064;-70
2022/06/18 03:22:27;;;;;;;1.30;1.20;;;;;;;;;;4560569;28;20709;-70
2022/06/18 03:24:41;;;;;;;1.30;1.20;;;;;;;;;;4564125;28;20038;-70
2022/06/18 03:26:52;;;;;;;1.67;1.35;;;;;;;;;;4554873;28;20079;-70
2022/06/18 03:29:04;;;;;;;2.10;1.25;;;;;;;;;;4564889;28;20040;-70
2022/06/18 03:31:15;;;;;;;1.67;1.30;;;;;;;;;;4571262;28;20039;-70
2022/06/18 03:33:26;;;;;;;1.50;1.40;;;;;;;;;;4554344;28;20031;-70
2022/06/18 03:35:40;;;;;;;1.40;1.30;;;;;;;;;;4560870;28;20625;-71
2022/06/18 03:37:50;;;;;;;1.95;1.50;;;;;;;;;;4564097;28;20071;-70
2022/06/18 03:40:01;;;;;;;1.70;1.50;;;;;;;;;;4560330;28;20128;-70
2022/06/18 03:42:12;;;;;;;1.40;1.30;;;;;;;;;;4547406;28;20036;-71
2022/06/18 03:44:24;;;;;;;2.83;1.30;;;;;;;;;;4561993;28;20059;-70
2022/06/18 03:46:37;;;;;;;1.98;1.30;;;;;;;;;;4543913;28;20041;-70
2022/06/18 03:49:01;;;;;;;1.40;1.25;;;;;;;;;;4561037;28;20142;-70
2022/06/18 03:51:17;;;;;;;;;;;;;;;;;;4556373;27;20025;-70
2022/06/18 03:53:28;;;;;;;1.77;1.30;;;;;;;;;;4566557;28;20364;-71
2022/06/18 03:55:38;;;;;;;2.15;1.40;;;;;;;;;;4571353;28;20040;-70
2022/06/18 03:57:51;;;;;;;1.77;1.40;;;;;;;;;;4555210;28;20033;-70
2022/06/18 04:00:04;;;;;;;1.52;1.20;;;;;;;;;;4567854;28;20020;-71
2022/06/18 04:02:15;;;;;;;1.30;1.20;;;;;;;;;;4568622;27;20068;-70
2022/06/18 04:04:27;;;;;;;1.30;1.10;;;;;;;;;;4568332;28;20043;-70
2022/06/18 04:06:40;;;;;;;1.48;1.38;;;;;;;;;;4567738;27;20314;-71
2022/06/18 04:09:10;;;;;;;1.42;1.30;;;;;;;;;;4568018;28;20040;-70
2022/06/18 04:11:21;;;;;;;1.58;1.40;;;;;;;;;;4574018;28;20038;-71
2022/06/18 04:13:32;;;;;;;1.48;1.25;;;;;;;;;;4574774;28;20122;-70
2022/06/18 04:16:15;;;;;;;2.03;1.40;;;;;;;;;;4559876;28;20051;-71
2022/06/18 04:18:26;;;;;;;1.73;1.50;;;;;;;;;;4575566;28;20539;-70
2022/06/18 04:20:37;;;;;;;1.63;1.30;;;;;;;;;;4563723;27;20596;-70
2022/06/18 04:22:51;;;;;;;1.60;1.30;;;;;;;;;;4568434;28;20250;-71
2022/06/18 04:25:03;;;;;;;2.33;1.40;;;;;;;;;;4566366;27;20127;-70
2022/06/18 04:27:14;;;;;;;1.98;1.30;;;;;;;;;;4564874;28;20218;-70
2022/06/18 04:29:24;;;;;;;2.28;1.40;;;;;;;;;;4567827;28;20189;-70
2022/06/18 04:31:35;;;;;;;1.40;1.30;;;;;;;;;;4572419;28;21417;-70
2022/06/18 04:33:46;;;;;;;1.30;1.20;;;;;;;;;;4567388;28;20085;-71
2022/06/18 04:36:33;;;;;;;1.52;1.33;;;;;;;;;;4553105;28;20040;-70
2022/06/18 04:38:46;;;;;;;1.30;1.20;;;;;;;;;;4556722;28;20733;-70
2022/06/18 04:41:23;;;;;;;2.00;1.30;;;;;;;;;;4564600;28;20082;-70
2022/06/18 04:43:42;;;;;;;1.98;1.20;;;;;;;;;;4564450;27;20624;-70
2022/06/18 04:45:56;;;;;;;1.60;1.45;;;;;;;;;;4572887;28;21032;-70
2022/06/18 04:48:09;;;;;;;1.50;1.40;;;;;;;;;;4581949;27;21126;-70
2022/06/18 04:50:23;;;;;;;2.05;1.65;;;;;;;;;;4557304;28;20082;-70
2022/06/18 04:52:34;;;;;;;2.17;1.58;;;;;;;;;;4557019;28;20033;-71
2022/06/18 04:54:46;;;;;;;2.25;1.48;;;;;;;;;;4563593;28;20031;-70
2022/06/18 04:56:56;;;;;;;1.60;1.50;;;;;;;;;;4549310;28;20064;-70
2022/06/18 04:59:07;;;;;;;1.60;1.50;;;;;;;;;;4566875;28;20032;-71
2022/06/18 05:01:20;;;;;;;2.00;1.50;;;;;;;;;;4566747;28;20051;-68
2022/06/18 05:03:41;;;;;;;1.60;1.30;;;;;;;;;;4565481;28;20024;-71
2022/06/18 05:06:10;;;;;;;1.50;1.35;;;;;;;;;;4564180;28;20041;-70
2022/06/18 05:08:28;;;;;;;1.85;1.30;;;;;;;;;;4550763;28;20064;-71
2022/06/18 05:10:57;;;;;;;2.20;1.52;;;;;;;;;;4563723;28;20041;-70
2022/06/18 05:13:19;;;;;;;2.10;1.55;;;;;;;;;;4573347;28;20560;-70
2022/06/18 05:15:34;;;;;;;1.92;1.60;;;;;;;;;;4566063;28;20211;-71
2022/06/18 05:17:45;;;;;;;1.90;1.50;;;;;;;;;;4566452;28;20776;-70
2022/06/18 05:19:56;;;;;;;2.38;1.50;;;;;;;;;;4567059;27;20067;-70
2022/06/18 05:22:09;;;;;;;1.95;1.60;;;;;;;;;;4572691;28;20040;-70
2022/06/18 05:24:19;;;;;;;1.75;1.65;;;;;;;;;;4555817;28;20024;-69
2022/06/18 05:26:30;;;;;;;1.60;1.40;;;;;;;;;;4550684;28;20029;-69
2022/06/18 05:28:40;;;;;;;2.20;1.67;;;;;;;;;;4580764;27;20401;-70
2022/06/18 05:30:51;;;;;;;1.70;1.60;;;;;;;;;;4559665;28;20127;-69
2022/06/18 05:33:03;;;;;;;1.83;1.60;;;;;;;;;;4573006;28;20454;-69
2022/06/18 05:35:15;;;;;;;1.70;1.60;;;;;;;;;;4548574;28;20114;-70
2022/06/18 05:37:27;;;;;;;1.67;1.50;;;;;;;;;;4563308;28;20118;-69
2022/06/18 05:39:38;;;;;;;1.90;1.70;;;;;;;;;;4555886;28;20788;-69
2022/06/18 05:41:48;;;;;;;1.80;1.52;;;;;;;;;;4566742;28;20044;-69
2022/06/18 05:43:59;;;;;;;2.70;1.70;;;;;;;;;;4563597;28;20036;-68
2022/06/18 05:46:11;;;;;;;2.60;1.50;;;;;;;;;;4554865;28;20032;-67
2022/06/18 05:48:22;;;;;;;1.60;1.50;;;;;;;;;;4572740;28;20186;-66
2022/06/18 05:50:32;;;;;;;2.67;1.70;;;;;;;;;;4566896;28;20044;-66
2022/06/18 05:52:43;;;;;;;1.60;1.50;;;;;;;;;;4565935;28;20040;-66
2022/06/18 05:55:23;;;;;;;1.90;1.60;;;;;;;;;;4555570;28;20609;-66
2022/06/18 05:57:55;;;;;;;2.20;1.70;;;;;;;;;;4563864;28;20115;-67
2022/06/18 06:00:13;;;;;;;1.77;1.60;;;;;;;;;;4564812;28;20043;-67
2022/06/18 06:02:24;;;;;;;1.70;1.60;;;;;;;;;;4564025;28;20056;-67
2022/06/18 06:04:35;;;;;;;2.00;1.52;;;;;;;;;;4564304;28;20058;-67
2022/06/18 06:06:46;;;;;;;1.77;1.40;;;;;;;;;;4579675;27;20045;-67
2022/06/18 06:08:57;;;;;;;3.28;1.75;;;;;;;;;;4562237;28;21025;-66
2022/06/18 06:13:38;;;;;;;1.70;1.48;;;;;;;;;;4561302;28;20043;-67
2022/06/18 06:15:49;;;;;;;1.67;1.48;;;;;;;;;;4565579;28;20043;-66
2022/06/18 06:18:00;;;;;;;2.50;1.85;;;;;;;;;;4548827;28;20180;-66
2022/06/18 06:20:21;;;;;;;1.70;1.60;;;;;;;;;;4561810;27;20034;-66
2022/06/18 06:22:33;;;;;;;2.80;1.77;;;;;;;;;;4566493;27;20229;-67
2022/06/18 06:24:44;;;;;;;3.13;1.55;;;;;;;;;;4564349;28;20028;-66
2022/06/18 06:26:55;;;;;;;2.47;1.70;;;;;;;;;;4563836;28;20036;-67
2022/06/18 06:29:05;;;;;;;0.60;0.60;;;;;;;;;;4564936;27;20037;-67
2022/06/18 06:31:17;;;;;;;0.50;0.50;;;;;;;;;;4565886;27;20032;-66
2022/06/18 06:33:28;;;;;;;0.60;0.60;;;;;;;;;;4562859;28;20041;-66
2022/06/18 06:35:39;;;;;;;0.50;0.50;;;;;;;;;;4561329;27;20036;-67
2022/06/18 06:37:49;;;;;;;0.60;0.60;;;;;;;;;;4561682;28;20530;-67
2022/06/18 06:39:59;;;;;;;0.57;0.57;;;;;;;;;;4561386;28;20043;-66
2022/06/18 06:42:10;;;;;;;0.50;0.50;;;;;;;;;;4562147;27;20463;-67
2022/06/18 06:44:20;;;;;;;1.05;0.50;;;;;;;;;;4576036;27;20093;-67
2022/06/18 06:46:31;;;;;;;0.50;0.50;;;;;;;;;;4563481;28;20033;-67
2022/06/18 06:48:42;;;;;;;0.50;0.50;;;;;;;;;;4544224;28;20033;-67
2022/06/18 06:50:52;;;;;;;0.40;0.40;;;;;;;;;;4562322;28;20045;-66
2022/06/18 06:53:03;;;;;;;0.40;0.40;;;;;;;;;;4563694;28;20369;-67
2022/06/18 06:57:53;;;;;;;0.50;0.50;;;;;;;;;;4558100;28;20107;-66
2022/06/18 07:00:04;;;;;;;0.65;0.60;;;;;;;;;;4572490;28;20039;-67
2022/06/18 07:02:21;;;;;;;0.50;0.50;;;;;;;;;;4562113;28;20047;-67
2022/06/18 07:04:31;;;;;;;0.50;0.50;;;;;;;;;;4563182;28;21719;-67
2022/06/18 07:06:42;;;;;;;0.40;0.40;;;;;;;;;;4563057;28;20037;-67
2022/06/18 07:08:54;;;;;;;0.40;0.40;;;;;;;;;;4563349;28;20889;-67
2022/06/18 07:11:04;;;;;;;0.55;0.50;;;;;;;;;;4562468;28;20032;-67
2022/06/18 07:13:15;;;;;;;0.50;0.50;;;;;;;;;;4563829;28;20024;-67
2022/06/18 07:15:25;;;;;;;0.50;0.50;;;;;;;;;;4563701;27;20334;-66
2022/06/18 07:17:36;;;;;;;0.47;0.47;;;;;;;;;;4562906;27;20111;-67
2022/06/18 07:19:47;;;;;;;0.60;0.50;;;;;;;;;;4563458;27;20032;-68
2022/06/18 07:21:57;;;;;;;0.45;0.45;;;;;;;;;;4562957;28;20508;-67
2022/06/18 07:24:08;;;;;;;0.60;0.40;;;;;;;;;;4563438;28;20022;-68
2022/06/18 07:26:20;;;;;;;0.52;0.52;;;;;;;;;;4561127;28;20052;-67
2022/06/18 07:28:30;;;;;;;0.50;0.50;;;;;;;;;;4571705;28;20036;-67
2022/06/18 07:30:41;;;;;;;1.10;0.45;;;;;;;;;;4563259;28;20036;-68
2022/06/18 07:32:52;;;;;;;0.45;0.40;;;;;;;;;;4563314;27;20519;-67
2022/06/18 07:35:04;;;;;;;0.50;0.50;;;;;;;;;;4571135;28;20028;-68
2022/06/18 07:37:14;;;;;;;0.60;0.60;;;;;;;;;;4567148;28;20035;-67
2022/06/18 07:39:25;;;;;;;0.40;0.40;;;;;;;;;;4563100;28;20400;-67
2022/06/18 07:41:45;;;;;;;0.43;0.43;;;;;;;;;;4562407;27;20040;-67
2022/06/18 07:43:55;;;;;;;0.50;0.40;;;;;;;;;;4563266;28;20650;-67
2022/06/18 07:46:07;;;;;;;0.40;0.40;;;;;;;;;;4548123;28;20155;-68
2022/06/18 07:48:18;;;;;;;0.80;0.50;;;;;;;;;;4564655;28;20547;-67
2022/06/18 07:50:30;;;;;;;0.50;0.50;;;;;;;;;;4561520;28;20488;-67
2022/06/18 07:52:41;;;;;;;0.45;0.45;;;;;;;;;;4561204;28;20037;-67
2022/06/18 07:54:51;;;;;;;0.47;0.43;;;;;;;;;;4561854;27;20540;-68
2022/06/18 07:57:02;;;;;;;0.45;0.45;;;;;;;;;;4551798;28;20031;-67
2022/06/18 07:59:13;;;;;;;0.50;0.50;;;;;;;;;;4579381;27;20040;-67
2022/06/18 08:01:23;;;;;;;0.50;0.50;;;;;;;;;;4561955;28;20087;-67
2022/06/18 08:03:35;;;;;;;0.50;0.50;;;;;;;;;;4563393;27;20116;-67
2022/06/18 08:05:47;;;;;;;0.50;0.50;;;;;;;;;;4577440;27;20533;-68
2022/06/18 08:07:57;;;;;;;0.50;0.50;;;;;;;;;;4561446;28;20047;-68
2022/06/18 08:10:08;;;;;;;0.40;0.40;;;;;;;;;;4561476;28;20507;-67
2022/06/18 08:12:19;;;;;;;0.40;0.40;;;;;;;;;;4562996;28;20041;-67
2022/06/18 08:14:29;;;;;;;0.40;0.40;;;;;;;;;;4563956;28;20082;-67
2022/06/18 08:16:40;;;;;;;0.52;0.52;;;;;;;;;;4546762;28;20111;-67
2022/06/18 08:18:50;;;;;;;0.50;0.50;;;;;;;;;;4565966;28;20134;-67
2022/06/18 08:21:05;;;;;;;0.68;0.47;;;;;;;;;;4562639;28;20036;-68
2022/06/18 08:23:16;;;;;;;0.40;0.40;;;;;;;;;;4571302;28;20135;-66
2022/06/18 08:25:27;;;;;;;0.40;0.40;;;;;;;;;;4562078;28;20043;-67
2022/06/18 08:27:39;;;;;;;0.50;0.50;;;;;;;;;;4563319;28;20106;-67
2022/06/18 08:29:49;;;;;;;0.50;0.50;;;;;;;;;;4561939;28;21262;-67
2022/06/18 08:32:00;;;;;;;0.40;0.40;;;;;;;;;;4561160;28;20056;-67
2022/06/18 08:34:11;;;;;;;0.43;0.43;;;;;;;;;;4562378;27;20488;-67
2022/06/18 08:36:21;;;;;;;0.40;0.40;;;;;;;;;;4560097;27;20028;-67
2022/06/18 08:38:32;;;;;;;0.60;0.60;;;;;;;;;;4562199;28;20094;-67
2022/06/18 08:40:54;;;;;;;0.50;0.50;;;;;;;;;;4562827;28;20119;-68
2022/06/18 08:43:19;;;;;;;0.57;0.57;;;;;;;;;;4570177;28;20110;-67
2022/06/18 08:45:50;;;;;;;0.50;0.50;;;;;;;;;;4563684;28;20425;-67
2022/06/18 08:48:12;;;;;;;0.40;0.40;;;;;;;;;;4565091;28;20036;-66
2022/06/18 08:50:32;;;;;;;0.50;0.50;;;;;;;;;;4565355;28;20036;-67
2022/06/18 08:53:08;;;;;;;0.50;0.50;;;;;;;;;;4565968;28;20032;-67
2022/06/18 08:55:31;;;;;;;0.40;0.40;;;;;;;;;;4565001;28;20099;-67
2022/06/18 08:57:56;;;;;;;0.50;0.50;;;;;;;;;;4565567;28;20032;-68
2022/06/18 09:00:12;;;;;;;0.50;0.50;;;;;;;;;;4565004;28;20132;-67
2022/06/18 09:02:54;;;;;;;0.47;0.47;;;;;;;;;;4564329;28;20046;-67
2022/06/18 09:05:14;;;;;;;0.50;0.50;;;;;;;;;;4559601;27;20078;-67
2022/06/18 09:07:36;;;;;;;0.50;0.50;;;;;;;;;;4556748;28;20029;-67
2022/06/18 09:09:57;;;;;;;0.45;0.45;;;;;;;;;;4573363;28;20173;-67
2022/06/18 09:12:19;;;;;;;0.40;0.40;;;;;;;;;;4557237;28;20140;-68
2022/06/18 09:14:56;;;;;;;0.40;0.40;;;;;;;;;;4562570;28;20113;-67
2022/06/18 09:17:35;;;;;;;0.60;0.60;;;;;;;;;;4564210;28;20131;-67
2022/06/18 09:19:53;;;;;;;0.55;0.45;;;;;;;;;;4578499;27;20044;-67
2022/06/18 09:22:09;;;;;;;0.40;0.40;;;;;;;;;;4564803;28;20098;-67
2022/06/18 09:24:23;;;;;;;0.30;0.30;;;;;;;;;;4573861;28;20110;-68
2022/06/18 09:26:43;;;;;;;0.50;0.50;;;;;;;;;;4566348;28;20038;-67
2022/06/18 09:29:08;;;;;;;0.50;0.50;;;;;;;;;;4573464;28;20090;-67
2022/06/18 09:31:26;;;;;;;0.40;0.40;;;;;;;;;;4565953;28;20589;-67
2022/06/18 09:33:48;;;;;;;0.77;0.77;;;;;;;;;;4573166;28;20036;-67
2022/06/18 09:36:02;;;;;;;0.40;0.40;;;;;;;;;;4566614;28;20167;-67
2022/06/18 09:38:29;;;;;;;0.40;0.40;;;;;;;;;;4565048;28;20036;-67
2022/06/18 09:40:49;;;;;;;0.43;0.43;;;;;;;;;;4564480;28;21322;-67
2022/06/18 09:43:12;;;;;;;0.60;0.50;;;;;;;;;;4564076;28;20056;-68
2022/06/18 09:45:29;;;;;;;0.40;0.40;;;;;;;;;;4566675;28;20024;-67
2022/06/18 09:47:44;;;;;;;0.50;0.50;;;;;;;;;;4566435;28;20728;-68
2022/06/18 09:49:54;;;;;;;0.70;0.50;;;;;;;;;;4572279;28;20057;-67
2022/06/18 09:52:20;;;;;;;0.63;0.63;;;;;;;;;;4576897;27;20065;-68
2022/06/18 09:54:36;;;;;;;0.50;0.50;;;;;;;;;;4562606;28;20135;-67
2022/06/18 09:56:51;;;;;;;0.50;0.50;;;;;;;;;;4569340;28;20039;-67
2022/06/18 09:59:07;;;;;;;0.40;0.40;;;;;;;;;;4561730;28;20232;-67
2022/06/18 10:01:21;;;;;;;0.45;0.45;;;;;;;;;;4564243;28;20040;-67
2022/06/18 10:08:38;;;;;;;0.35;0.30;;;;;;;;;;4560170;28;20036;-68
2022/06/18 10:10:53;;;;;;;0.68;0.40;;;;;;;;;;4565172;28;20147;-68
2022/06/18 10:13:12;;;;;;;0.40;0.40;;;;;;;;;;4565910;28;20422;-68
2022/06/18 10:15:23;;;;;;;0.40;0.40;;;;;;;;;;4562216;28;20032;-68
2022/06/18 10:17:52;;;;;;;0.50;0.50;;;;;;;;;;4572061;28;20575;-68
2022/06/18 10:20:24;;;;;;;0.50;0.50;;;;;;;;;;4563163;28;20548;-68
2022/06/18 10:22:41;;;;;;;0.30;0.30;;;;;;;;;;4563750;27;20732;-69
2022/06/18 10:25:21;;;;;;;0.40;0.40;;;;;;;;;;4553879;28;20040;-69
2022/06/18 10:27:46;;;;;;;0.47;0.47;;;;;;;;;;4541320;28;20044;-68
2022/06/18 10:30:21;;;;;;;0.40;0.40;;;;;;;;;;4572496;27;20139;-68
2022/06/18 10:32:41;;;;;;;0.50;0.50;;;;;;;;;;4565481;28;20029;-69
2022/06/18 10:34:51;;;;;;;0.30;0.30;;;;;;;;;;4567576;28;20043;-68
2022/06/18 10:37:11;;;;;;;0.25;0.25;;;;;;;;;;4563456;28;20039;-69
2022/06/18 10:39:36;;;;;;;0.30;0.30;;;;;;;;;;4565084;28;20028;-69
2022/06/18 10:42:22;;;;;;;0.30;0.30;;;;;;;;;;4565562;28;20225;-69
2022/06/18 10:44:38;;;;;;;0.50;0.50;;;;;;;;;;4554573;28;20079;-69
2022/06/18 10:47:05;;;;;;;0.50;0.50;;;;;;;;;;4571328;28;20102;-68
2022/06/18 10:49:24;;;;;;;0.45;0.45;;;;;;;;;;4561671;28;20489;-68
2022/06/18 10:51:52;;;;;;;0.30;0.30;;;;;;;;;;4563272;28;20036;-67
2022/06/18 10:54:03;;;;;;;0.40;0.40;;;;;;;;;;4564158;28;20035;-68
2022/06/18 10:56:25;;;;;;;0.30;0.30;;;;;;;;;;4564845;28;20705;-69
2022/06/18 10:58:46;;;;;;;0.43;0.43;;;;;;;;;;4567163;28;20075;-68
2022/06/18 11:01:11;;;;;;;0.40;0.40;;;;;;;;;;4564983;28;20024;-68
2022/06/18 11:03:23;;;;;;;0.40;0.40;;;;;;;;;;4551881;28;20045;-69
2022/06/18 11:05:36;;;;;;;0.50;0.50;;;;;;;;;;4562137;28;20252;-68
2022/06/18 11:07:49;;;;;;;0.40;0.40;;;;;;;;;;4562822;28;20103;-68
2022/06/18 11:10:07;;;;;;;0.40;0.40;;;;;;;;;;4547444;28;20807;-69
2022/06/18 11:12:23;;;;;;;0.50;0.50;;;;;;;;;;4565200;28;20638;-68
2022/06/18 11:14:41;;;;;;;0.40;0.40;;;;;;;;;;4561758;28;20044;-68
2022/06/18 11:16:55;;;;;;;0.47;0.47;;;;;;;;;;4561739;28;20127;-68
2022/06/18 11:19:16;;;;;;;0.43;0.43;;;;;;;;;;4563439;28;20610;-69
2022/06/18 11:21:39;;;;;;;0.63;0.50;;;;;;;;;;4566473;27;20040;-69
2022/06/18 11:23:57;;;;;;;0.45;0.45;;;;;;;;;;4567106;28;20071;-68
2022/06/18 11:26:16;;;;;;;0.50;0.50;;;;;;;;;;4564126;27;20139;-68
2022/06/18 11:28:33;;;;;;;0.47;0.47;;;;;;;;;;4564762;28;20034;-69
2022/06/18 11:30:46;;;;;;;0.70;0.40;;;;;;;;;;4562237;28;20039;-68
2022/06/18 11:32:56;;;;;;;0.60;0.60;;;;;;;;;;4572219;27;20147;-68
2022/06/18 11:35:16;;;;;;;0.52;0.47;;;;;;;;;;4563245;28;20029;-68
2022/06/18 11:37:29;;;;;;;0.50;0.50;;;;;;;;;;4560219;28;20040;-67
2022/06/18 11:39:40;;;;;;;0.50;0.50;;;;;;;;;;4561923;28;20037;-68
2022/06/18 11:41:55;;;;;;;0.68;0.50;;;;;;;;;;4563005;28;20039;-68
2022/06/18 11:44:22;;;;;;;0.50;0.50;;;;;;;;;;4561695;28;20086;-68
2022/06/18 11:46:45;;;;;;;0.40;0.40;;;;;;;;;;4558688;28;20032;-68
2022/06/18 11:49:14;;;;;;;0.68;0.55;;;;;;;;;;4563136;27;20591;-68
2022/06/18 11:51:40;;;;;;;0.50;0.50;;;;;;;;;;4562111;28;20036;-68
2022/06/18 11:54:15;;;;;;;0.40;0.40;;;;;;;;;;4561735;28;20761;-68
2022/06/18 11:56:47;;;;;;;0.52;0.52;;;;;;;;;;4559856;28;20602;-68
2022/06/18 11:59:17;;;;;;;0.43;0.43;;;;;;;;;;4560064;28;20586;-69
2022/06/18 12:01:32;;;;;;;0.50;0.50;;;;;;;;;;4560163;28;20044;-68
2022/06/18 12:03:53;;;;;;;1.13;0.50;;;;;;;;;;4568322;28;20693;-69
2022/06/18 12:06:31;;;;;;;0.50;0.50;;;;;;;;;;4561490;28;20040;-68
2022/06/18 12:08:43;;;;;;;0.47;0.43;;;;;;;;;;4561336;28;20738;-68
2022/06/18 12:11:04;;;;;;;0.50;0.50;;;;;;;;;;4562704;28;21374;-68
2022/06/18 12:13:42;;;;;;;0.60;0.60;;;;;;;;;;4565486;28;20243;-68
2022/06/18 12:16:00;;;;;;;0.40;0.40;;;;;;;;;;4564860;28;20032;-68
2022/06/18 12:18:15;;;;;;;0.70;0.50;;;;;;;;;;4563245;28;20134;-68
2022/06/18 12:20:35;;;;;;;1.05;0.50;;;;;;;;;;4566350;28;20032;-69
2022/06/18 12:22:59;;;;;;;0.50;0.50;;;;;;;;;;4563379;27;20148;-68
2022/06/18 12:25:28;;;;;;;0.65;0.50;;;;;;;;;;4564651;28;20130;-69
2022/06/18 12:27:49;;;;;;;0.75;0.55;;;;;;;;;;4565840;28;20035;-68
2022/06/18 12:30:21;;;;;;;0.52;0.50;;;;;;;;;;4563307;27;20624;-68
2022/06/18 12:32:53;;;;;;;0.50;0.50;;;;;;;;;;4567264;28;20154;-68
2022/06/18 12:35:23;;;;;;;0.50;0.50;;;;;;;;;;4566486;28;20045;-68
2022/06/18 12:37:57;;;;;;;0.50;0.50;;;;;;;;;;4565231;28;20566;-69
2022/06/18 12:40:26;;;;;;;0.57;0.57;;;;;;;;;;4562032;28;20151;-69
2022/06/18 12:42:42;;;;;;;0.60;0.50;;;;;;;;;;4564708;28;20206;-68
2022/06/18 12:45:08;;;;;;;0.50;0.50;;;;;;;;;;4567855;28;20035;-68
2022/06/18 12:47:34;;;;;;;1.15;0.52;;;;;;;;;;4565647;28;20040;-68
2022/06/18 12:50:01;;;;;;;0.52;0.52;;;;;;;;;;4551673;28;20119;-68
2022/06/18 12:52:26;;;;;;;0.60;0.60;;;;;;;;;;4565488;27;20033;-68
2022/06/18 12:55:11;;;;;;;0.95;0.50;;;;;;;;;;4565564;28;20221;-70
2022/06/18 12:57:44;;;;;;;0.65;0.60;;;;;;;;;;4564232;28;20071;-68
2022/06/18 13:00:00;;;;;;;0.50;0.47;;;;;;;;;;4564814;28;20078;-68
2022/06/18 13:02:16;;;;;;;0.80;0.50;;;;;;;;;;4564895;28;21283;-69
2022/06/18 13:04:30;;;;;;;0.98;0.50;;;;;;;;;;4563646;28;20242;-69
2022/06/18 13:06:55;;;;;;;1.20;0.40;;;;;;;;;;4564069;28;20024;-68
2022/06/18 13:09:17;;;;;;;0.70;0.70;;;;;;;;;;4547149;28;20079;-69
2022/06/18 13:11:55;;;;;;;0.50;0.50;;;;;;;;;;4565052;27;20031;-69
2022/06/18 13:14:37;;;;;;;0.73;0.50;;;;;;;;;;4564695;28;20036;-68
2022/06/18 13:17:13;;;;;;;0.47;0.40;;;;;;;;;;4564160;27;20127;-68
2022/06/18 13:19:28;;;;;;;0.70;0.55;;;;;;;;;;4559771;28;20113;-68
2022/06/18 13:21:39;;;;;;;0.65;0.40;;;;;;;;;;4566712;28;20036;-68
2022/06/18 13:29:08;;;;;;;0.93;0.50;;;;;;;;;;4571397;28;20040;-68
2022/06/18 13:31:46;;;;;;;1.63;0.60;;;;;;;;;;4566155;27;20757;-69
2022/06/18 13:34:08;;;;;;;0.90;0.57;;;;;;;;;;4565905;28;20041;-69
2022/06/18 13:36:35;;;;;;;0.57;0.57;;;;;;;;;;4563088;28;20118;-68
2022/06/18 13:39:07;;;;;;;0.50;0.50;;;;;;;;;;4565821;27;21125;-69
2022/06/18 13:41:36;;;;;;;0.60;0.60;;;;;;;;;;4568305;28;20138;-68
2022/06/18 13:44:18;;;;;;;0.47;0.47;;;;;;;;;;4565378;28;20990;-68
2022/06/18 13:46:32;;;;;;;0.50;0.50;;;;;;;;;;4564445;28;20654;-68
2022/06/18 13:48:42;;;;;;;0.60;0.50;;;;;;;;;;4565856;27;20614;-68
2022/06/18 13:50:54;;;;;;;0.73;0.65;;;;;;;;;;4565026;28;20055;-68
2022/06/18 13:53:04;;;;;;;0.77;0.52;;;;;;;;;;4566610;28;20032;-68
2022/06/18 13:55:29;;;;;;;0.60;0.60;;;;;;;;;;4563813;28;20431;-67
2022/06/18 13:57:47;;;;;;;0.60;0.60;;;;;;;;;;4564041;28;20578;-68
2022/06/18 14:00:00;;;;;;;0.60;0.60;;;;;;;;;;4566271;28;20033;-67
2022/06/18 14:02:22;;;;;;;0.68;0.55;;;;;;;;;;4573405;28;20185;-68